Time;durP1;ratioP1;P1;durP2;ratioP2;P2;SDS_P1;SDS_P2;PMS_P1;PMS_P2;Temp;Humidity;BMP_temperature;BMP_pressure;BME280_temperature;BME280_humidity;BME280_pressure;Samples;Min_cycle;Max_cycle;Signal;HPM_P1;HPM_P2
2022/07/16 00:03:10;;;;;;;5.47;2.60;;;;;;;13.96;100.00;99707.22;5075214;28;20277;-77
2022/07/16 00:05:37;;;;;;;5.00;2.73;;;;;;;13.88;100.00;99699.50;5079017;28;20224;-77
2022/07/16 00:08:04;;;;;;;2.97;2.53;;;;;;;13.83;100.00;99696.72;5078136;28;20224;-77
2022/07/16 00:10:30;;;;;;;3.60;2.50;;;;;;;13.79;100.00;99692.88;5085498;28;20224;-77
2022/07/16 00:12:57;;;;;;;3.60;2.60;;;;;;;13.78;100.00;99695.78;5084080;28;20233;-77
2022/07/16 00:15:24;;;;;;;2.97;2.53;;;;;;;13.76;100.00;99687.16;5075629;28;20225;-77
2022/07/16 00:19:15;;;;;;;5.50;2.77;;;;;;;13.74;100.00;99694.63;5067128;28;20293;-78
2022/07/16 00:20:41;;;;;;;3.57;2.60;;;;;;;13.70;100.00;99690.78;5069517;28;20233;-77
2022/07/16 00:23:07;;;;;;;5.13;2.90;;;;;;;13.65;100.00;99689.63;5074329;28;20267;-78
2022/07/16 00:25:35;;;;;;;4.43;2.60;;;;;;;13.64;100.00;99696.06;5059931;28;20233;-77
2022/07/16 00:28:02;;;;;;;4.83;2.80;;;;;;;13.56;100.00;99693.75;5073713;28;20234;-77
2022/07/16 00:30:29;;;;;;;4.17;2.67;;;;;;;13.51;100.00;99699.03;5068403;28;20238;-78
2022/07/16 00:32:56;;;;;;;3.33;2.93;;;;;;;13.45;100.00;99693.75;5075011;28;20231;-78
2022/07/16 00:35:23;;;;;;;3.07;2.63;;;;;;;13.44;100.00;99692.09;5076431;28;20643;-77
2022/07/16 00:37:50;;;;;;;3.90;3.10;;;;;;;13.40;100.00;99690.94;5073056;28;20646;-77
2022/07/16 00:40:16;;;;;;;3.13;2.70;;;;;;;13.36;100.00;99698.69;5070884;28;20262;-77
2022/07/16 00:42:43;;;;;;;4.63;2.87;;;;;;;13.31;100.00;99701.25;5077241;28;20322;-75
2022/07/16 00:45:10;;;;;;;3.57;2.97;;;;;;;13.30;100.00;99696.13;5074606;28;20229;-76
2022/07/16 00:47:36;;;;;;;4.63;2.90;;;;;;;13.25;100.00;99696.81;5068184;28;20256;-78
2022/07/16 00:50:04;;;;;;;3.47;2.80;;;;;;;13.23;100.00;99701.63;5081798;28;20354;-78
2022/07/16 00:52:34;;;;;;;4.47;3.03;;;;;;;13.22;100.00;99694.59;5071950;28;20231;-78
2022/07/16 00:55:01;;;;;;;4.10;3.00;;;;;;;13.19;100.00;99695.09;5055745;28;20331;-78
2022/07/16 00:57:29;;;;;;;3.50;2.77;;;;;;;13.17;100.00;99697.19;5078201;28;20224;-79
2022/07/16 00:59:57;;;;;;;3.27;2.80;;;;;;;13.21;100.00;99695.66;5072744;28;20280;-78
2022/07/16 01:02:23;;;;;;;3.83;3.00;;;;;;;13.16;100.00;99692.84;5075335;28;20247;-78
2022/07/16 01:04:50;;;;;;;3.00;2.80;;;;;;;13.14;100.00;99700.34;5083505;28;20235;-77
2022/07/16 01:07:17;;;;;;;3.67;2.90;;;;;;;13.11;100.00;99698.94;5053717;28;20232;-78
2022/07/16 01:09:44;;;;;;;4.47;3.13;;;;;;;13.09;100.00;99697.50;5086786;28;20261;-78
2022/07/16 01:12:11;;;;;;;3.10;2.80;;;;;;;13.06;100.00;99692.59;5078763;28;20708;-78
2022/07/16 01:14:38;;;;;;;2.80;2.60;;;;;;;13.02;100.00;99689.53;5059936;28;20320;-78
2022/07/16 01:17:05;;;;;;;3.77;3.03;;;;;;;13.00;100.00;99694.34;5079937;28;20323;-78
2022/07/16 01:19:31;;;;;;;3.50;3.20;;;;;;;13.01;100.00;99700.56;5083475;28;20220;-78
2022/07/16 01:21:58;;;;;;;5.53;3.37;;;;;;;13.01;100.00;99701.38;5072428;28;20253;-78
2022/07/16 01:24:25;;;;;;;3.77;3.10;;;;;;;12.98;100.00;99693.75;5070961;28;20232;-78
2022/07/16 01:26:51;;;;;;;3.80;3.50;;;;;;;12.98;100.00;99701.00;5062601;28;20683;-77
2022/07/16 01:29:18;;;;;;;3.50;2.80;;;;;;;12.96;100.00;99698.56;5079446;28;20255;-77
2022/07/16 01:31:45;;;;;;;5.33;4.13;;;;;;;12.93;100.00;99696.31;5070795;28;20331;-78
2022/07/16 01:34:26;;;;;;;4.50;3.27;;;;;;;12.89;100.00;99689.78;5078854;28;20228;-78
2022/07/16 01:36:54;;;;;;;4.33;3.27;;;;;;;12.92;100.00;99680.44;5044860;28;20331;-78
2022/07/16 01:39:22;;;;;;;5.70;3.80;;;;;;;12.84;100.00;99681.59;5057230;28;20680;-78
2022/07/16 01:41:53;;;;;;;5.97;3.70;;;;;;;12.82;100.00;99681.03;5081299;28;20231;-77
2022/07/16 01:44:21;;;;;;;5.53;4.20;;;;;;;12.80;100.00;99677.72;5061305;28;20235;-77
2022/07/16 01:46:48;;;;;;;7.80;4.37;;;;;;;12.78;100.00;99671.78;5031809;28;20266;-77
2022/07/16 01:49:14;;;;;;;5.57;4.20;;;;;;;12.76;100.00;99679.25;5050807;28;20221;-78
2022/07/16 01:51:41;;;;;;;6.43;3.90;;;;;;;12.72;100.00;99672.72;5051078;28;20313;-78
2022/07/16 01:54:08;;;;;;;6.43;4.27;;;;;;;12.75;100.00;99674.91;5050775;28;20322;-78
2022/07/16 01:56:34;;;;;;;6.73;4.10;;;;;;;12.69;100.00;99665.13;5064481;28;20259;-78
2022/07/16 01:59:02;;;;;;;6.77;4.30;;;;;;;12.65;100.00;99671.97;5072813;28;20246;-78
2022/07/16 02:01:28;;;;;;;5.97;4.67;;;;;;;12.60;100.00;99667.31;5058500;28;20241;-78
2022/07/16 02:03:56;;;;;;;7.43;4.57;;;;;;;12.58;100.00;99671.28;5076209;28;20247;-78
2022/07/16 02:06:24;;;;;;;7.93;4.73;;;;;;;12.53;100.00;99674.66;5076087;28;20313;-78
2022/07/16 02:08:51;;;;;;;6.07;4.20;;;;;;;12.47;100.00;99672.06;5058151;28;20291;-78
2022/07/16 02:11:17;;;;;;;6.23;4.63;;;;;;;12.45;100.00;99666.13;5075933;28;20315;-79
2022/07/16 02:13:44;;;;;;;6.97;4.50;;;;;;;12.41;100.00;99670.31;5058141;28;20774;-77
2022/07/16 02:16:11;;;;;;;6.13;4.40;;;;;;;12.39;100.00;99669.72;5075611;28;20227;-79
2022/07/16 02:18:38;;;;;;;5.20;4.40;;;;;;;12.36;100.00;99666.44;5075871;28;20330;-77
2022/07/16 02:21:05;;;;;;;7.07;4.30;;;;;;;12.34;100.00;99665.84;5075671;28;20234;-77
2022/07/16 02:23:31;;;;;;;5.90;4.30;;;;;;;12.32;100.00;99665.25;5075578;28;20673;-77
2022/07/16 02:25:58;;;;;;;6.53;4.57;;;;;;;12.31;100.00;99673.56;5076069;28;20603;-76
2022/07/16 02:28:25;;;;;;;5.13;4.30;;;;;;;12.30;100.00;99675.44;5075266;28;20314;-77
2022/07/16 02:30:51;;;;;;;5.37;4.20;;;;;;;12.29;100.00;99675.66;5075504;28;20647;-77
2022/07/16 02:33:19;;;;;;;6.40;4.40;;;;;;;12.25;100.00;99666.41;5075538;28;20315;-77
2022/07/16 02:35:46;;;;;;;4.77;4.20;;;;;;;12.24;100.00;99665.59;5075566;28;20591;-77
2022/07/16 02:38:13;;;;;;;6.50;4.40;;;;;;;12.24;100.00;99664.78;5075053;28;20235;-76
2022/07/16 02:40:41;;;;;;;5.30;4.40;;;;;;;12.23;100.00;99668.50;5075315;28;20253;-76
2022/07/16 02:43:08;;;;;;;6.47;4.40;;;;;;;12.23;100.00;99668.50;5075456;28;20320;-76
2022/07/16 02:45:37;;;;;;;6.23;4.67;;;;;;;12.19;100.00;99665.47;5057531;28;20258;-76
2022/07/16 02:48:05;;;;;;;6.03;4.47;;;;;;;12.19;100.00;99656.56;5057357;28;20737;-76
2022/07/16 02:50:32;;;;;;;7.33;4.63;;;;;;;12.21;100.00;99662.56;5074904;28;20237;-76
2022/07/16 02:52:58;;;;;;;7.50;4.77;;;;;;;12.22;100.00;99670.41;5075313;28;20313;-76
2022/07/16 02:55:26;;;;;;;5.63;4.37;;;;;;;12.22;100.00;99664.19;5074996;28;20280;-76
2022/07/16 02:57:52;;;;;;;6.97;5.00;;;;;;;12.22;100.00;99670.41;5057323;28;20231;-76
2022/07/16 03:00:19;;;;;;;5.53;4.53;;;;;;;12.21;100.00;99668.75;5077018;28;20290;-76
2022/07/16 03:02:46;;;;;;;6.13;4.67;;;;;;;12.23;100.00;99668.50;5067664;28;20312;-75
2022/07/16 03:05:14;;;;;;;7.00;4.90;;;;;;;12.21;100.00;99662.56;5070267;28;20658;-76
2022/07/16 03:07:41;;;;;;;6.00;5.13;;;;;;;12.20;100.00;99675.16;5064765;28;20255;-77
2022/07/16 03:10:09;;;;;;;5.80;4.53;;;;;;;12.19;100.00;99670.00;5078291;28;20641;-77
2022/07/16 03:12:35;;;;;;;6.77;4.90;;;;;;;12.18;100.00;99671.88;5073392;28;20330;-76
2022/07/16 03:15:03;;;;;;;4.90;4.40;;;;;;;12.19;100.00;99670.84;5090187;28;20314;-77
2022/07/16 03:17:30;;;;;;;5.97;4.33;;;;;;;12.19;100.00;99672.69;5081365;28;20297;-76
2022/07/16 03:19:57;;;;;;;7.67;4.87;;;;;;;12.17;100.00;99666.75;5061329;28;20273;-78
2022/07/16 03:22:23;;;;;;;7.33;4.50;;;;;;;12.12;100.00;99662.06;5065664;28;20261;-77
2022/07/16 03:24:50;;;;;;;5.53;4.47;;;;;;;12.13;100.00;99662.88;5070824;28;20333;-76
2022/07/16 03:27:17;;;;;;;4.73;4.30;;;;;;;12.16;100.00;99663.25;5060305;28;20225;-77
2022/07/16 03:29:43;;;;;;;6.97;5.00;;;;;;;12.20;100.00;99659.03;5073986;28;20238;-76
2022/07/16 03:32:10;;;;;;;6.77;4.60;;;;;;;12.20;100.00;99659.03;5073010;28;20299;-77
2022/07/16 03:34:37;;;;;;;5.20;4.20;;;;;;;12.27;100.00;99658.97;5072595;28;20256;-77
2022/07/16 03:37:03;;;;;;;7.00;4.53;;;;;;;12.33;100.00;99660.72;5073664;28;20310;-77
2022/07/16 03:39:30;;;;;;;5.33;4.57;;;;;;;12.38;100.00;99663.53;5077931;28;20326;-76
2022/07/16 03:41:57;;;;;;;6.80;4.47;;;;;;;12.40;100.00;99663.31;5072049;28;20227;-76
2022/07/16 03:44:23;;;;;;;5.47;4.40;;;;;;;12.44;100.00;99661.78;5060234;28;20675;-76
2022/07/16 03:46:50;;;;;;;5.13;4.10;;;;;;;12.48;100.00;99649.53;5073433;28;20312;-76
2022/07/16 03:49:16;;;;;;;4.33;3.93;;;;;;;12.53;100.00;99657.72;5077845;28;20329;-77
2022/07/16 03:51:43;;;;;;;4.90;4.40;;;;;;;12.58;100.00;99664.03;5066239;28;20265;-75
2022/07/16 03:54:10;;;;;;;4.90;4.40;;;;;;;12.65;100.00;99666.59;5073644;28;20330;-75
2022/07/16 03:56:36;;;;;;;5.17;3.70;;;;;;;12.67;100.00;99659.97;5073676;28;20257;-77
2022/07/16 03:59:03;;;;;;;3.97;3.67;;;;;;;12.75;100.00;99664.97;5079454;28;20258;-78
2022/07/16 04:01:30;;;;;;;5.57;4.43;;;;;;;12.87;100.00;99672.25;5078605;28;20283;-77
2022/07/16 04:03:57;;;;;;;4.73;4.20;;;;;;;13.11;100.00;99661.28;5075827;28;20230;-76
2022/07/16 04:06:23;;;;;;;4.40;4.00;;;;;;;14.30;100.00;99673.09;5074654;28;20257;-77
2022/07/16 04:08:50;;;;;;;5.80;4.20;;;;;;;15.80;100.00;99659.44;5081113;28;20223;-79
2022/07/16 04:11:17;;;;;;;4.33;3.93;;;;;;;17.06;100.00;99659.81;5070779;28;20286;-77
2022/07/16 04:13:44;;;;;;;4.47;3.70;;;;;;;18.06;100.00;99655.09;5070355;28;20656;-77
2022/07/16 04:16:11;;;;;;;5.87;4.00;;;;;;;18.77;96.65;99655.19;5069399;28;20239;-77
2022/07/16 04:18:38;;;;;;;5.40;4.07;;;;;;;18.97;91.10;99663.34;5056078;28;20710;-77
2022/07/16 04:21:05;;;;;;;6.77;4.00;;;;;;;18.95;91.36;99665.50;5079376;28;20649;-77
2022/07/16 04:23:33;;;;;;;4.43;4.03;;;;;;;18.96;88.86;99658.97;5072397;28;20214;-77
2022/07/16 04:25:59;;;;;;;4.60;4.03;;;;;;;18.98;88.41;99656.00;5074253;28;20371;-77
2022/07/16 04:28:26;;;;;;;5.23;4.00;;;;;;;18.97;87.57;99652.47;5076983;28;20228;-77
2022/07/16 04:30:53;;;;;;;6.27;4.50;;;;;;;18.93;85.77;99654.13;5070712;28;20260;-77
2022/07/16 04:33:20;;;;;;;10.30;9.03;;;;;;;19.01;86.04;99661.69;5071764;28;20742;-77
2022/07/16 04:35:48;;;;;;;14.43;10.77;;;;;;;18.88;85.52;99652.22;5072238;28;20848;-77
2022/07/16 04:38:16;;;;;;;6.00;4.53;;;;;;;18.50;91.73;99658.16;5075526;28;20274;-77
2022/07/16 04:40:43;;;;;;;5.00;3.90;;;;;;;18.20;93.93;99655.41;5076452;28;20262;-78
2022/07/16 04:43:09;;;;;;;5.17;3.77;;;;;;;18.02;96.56;99654.00;5074280;28;20241;-77
2022/07/16 04:45:36;;;;;;;4.77;4.27;;;;;;;17.83;98.89;99659.09;5070499;28;20313;-76
2022/07/16 04:48:03;;;;;;;6.03;4.20;;;;;;;17.65;100.00;99664.19;5068374;28;20679;-78
2022/07/16 04:50:30;;;;;;;6.77;4.50;;;;;;;17.59;100.00;99655.22;5069216;28;20232;-78
2022/07/16 04:52:57;;;;;;;5.23;4.70;;;;;;;17.60;100.00;99662.28;5069913;28;20448;-77
2022/07/16 04:55:24;;;;;;;6.67;4.33;;;;;;;17.62;100.00;99667.44;5076452;28;20256;-77
2022/07/16 04:57:50;;;;;;;5.90;4.70;;;;;;;17.63;100.00;99655.53;5078384;28;20634;-76
2022/07/16 05:00:24;;;;;;;7.47;4.93;;;;;;;17.65;100.00;99656.88;5075600;28;20318;-76
2022/07/16 05:02:56;;;;;;;5.70;4.60;;;;;;;17.70;100.00;99661.50;5072780;28;20263;-78
2022/07/16 05:05:31;;;;;;;6.57;4.87;;;;;;;17.83;99.90;99658.28;5072739;28;20303;-78
2022/07/16 05:07:59;;;;;;;7.30;5.27;;;;;;;17.90;99.85;99661.56;5078259;28;20238;-79
2022/07/16 05:10:29;;;;;;;6.80;4.60;;;;;;;17.99;98.00;99662.69;5073137;28;20703;-78
2022/07/16 05:12:56;;;;;;;7.53;5.00;;;;;;;18.13;98.15;99658.38;5083733;28;20224;-78
2022/07/16 05:15:23;;;;;;;7.07;5.50;;;;;;;18.28;97.39;99663.84;5076506;28;20228;-79
2022/07/16 05:17:50;;;;;;;5.53;4.93;;;;;;;18.41;97.89;99659.78;5054986;28;20308;-79
2022/07/16 05:20:17;;;;;;;5.30;4.80;;;;;;;18.55;95.76;99669.06;5051176;28;20874;-78
2022/07/16 05:22:43;;;;;;;5.67;5.07;;;;;;;18.64;93.96;99669.31;5085162;28;20299;-78
2022/07/16 05:25:11;;;;;;;7.07;4.57;;;;;;;18.65;95.34;99665.53;5044662;28;20304;-79
2022/07/16 05:27:38;;;;;;;5.93;4.63;;;;;;;18.83;94.94;99662.25;5057026;28;20267;-78
2022/07/16 05:30:05;;;;;;;7.00;4.70;;;;;;;18.93;95.54;99667.69;5075510;28;20702;-78
2022/07/16 05:32:39;;;;;;;5.07;4.57;;;;;;;19.11;93.38;99677.97;5051211;28;20232;-78
2022/07/16 05:35:06;;;;;;;5.37;4.10;;;;;;;19.22;90.66;99674.13;5053185;28;20227;-79
2022/07/16 05:37:33;;;;;;;6.47;4.10;;;;;;;19.20;92.22;99667.38;5072125;28;20224;-78
2022/07/16 05:40:00;;;;;;;5.80;4.20;;;;;;;19.38;90.92;99668.69;5079681;28;20252;-78
2022/07/16 05:42:27;;;;;;;4.23;3.43;;;;;;;19.28;84.15;99672.22;5059817;28;20233;-78
2022/07/16 05:44:54;;;;;;;4.23;3.80;;;;;;;19.52;85.66;99667.84;5072491;28;20250;-78
2022/07/16 05:47:20;;;;;;;4.77;3.50;;;;;;;19.71;84.20;99674.31;5057299;28;20236;-79
2022/07/16 05:49:47;;;;;;;5.23;3.47;;;;;;;19.85;80.50;99668.25;5075608;28;20315;-78
2022/07/16 05:52:14;;;;;;;5.47;3.20;;;;;;;19.96;72.79;99676.09;5072376;28;20241;-79
2022/07/16 05:54:41;;;;;;;4.20;3.10;;;;;;;20.12;73.58;99676.81;5084898;28;20276;-79
2022/07/16 05:57:08;;;;;;;5.40;3.20;;;;;;;20.28;73.46;99675.63;5076942;28;20229;-79
2022/07/16 05:59:58;;;;;;;4.10;3.20;;;;;;;20.38;72.06;99678.31;5063420;28;20236;-78
2022/07/16 06:02:25;;;;;;;4.43;3.00;;;;;;;20.57;67.28;99671.13;5074648;28;20647;-79
2022/07/16 06:04:52;;;;;;;3.73;2.90;;;;;;;20.76;66.96;99670.41;5074438;28;20755;-78
2022/07/16 06:07:19;;;;;;;4.87;3.10;;;;;;;20.87;65.11;99678.19;5068764;28;20241;-83
2022/07/16 06:09:45;;;;;;;3.43;2.90;;;;;;;20.98;63.41;99673.47;5074711;28;20313;-78
2022/07/16 06:12:12;;;;;;;5.40;3.20;;;;;;;21.17;63.87;99679.88;5056156;28;20260;-79
2022/07/16 06:14:39;;;;;;;4.17;2.93;;;;;;;21.60;63.87;99678.03;5063390;28;20329;-78
2022/07/16 06:17:05;;;;;;;3.30;3.00;;;;;;;22.12;59.90;99682.56;5070893;28;20309;-79
2022/07/16 06:19:32;;;;;;;3.53;3.00;;;;;;;22.23;58.67;99678.59;5083662;28;20253;-79
2022/07/16 06:21:58;;;;;;;5.13;3.50;;;;;;;22.09;57.92;99674.97;5081322;28;20322;-78
2022/07/16 06:24:25;;;;;;;3.60;2.90;;;;;;;22.26;57.70;99679.91;5082617;28;20312;-79
2022/07/16 06:26:52;;;;;;;3.27;2.93;;;;;;;22.33;57.94;99669.44;5069745;28;20279;-79
2022/07/16 06:29:18;;;;;;;4.13;3.17;;;;;;;22.55;58.37;99674.28;5067926;28;20245;-78
2022/07/16 06:31:45;;;;;;;5.27;3.17;;;;;;;22.64;57.72;99677.97;5082818;28;20323;-78
2022/07/16 06:34:12;;;;;;;3.93;3.13;;;;;;;22.76;55.97;99684.66;5068844;28;20715;-80
2022/07/16 06:36:38;;;;;;;5.05;2.95;;;;;;;22.91;56.18;99680.03;5070951;28;20260;-79
2022/07/16 06:39:05;;;;;;;3.67;3.20;;;;;;;23.04;53.37;99682.81;5048961;28;20272;-79
2022/07/16 06:41:32;;;;;;;7.73;3.60;;;;;;;23.17;50.77;99673.00;5073888;28;20264;-78
2022/07/16 06:43:59;;;;;;;6.23;3.43;;;;;;;23.14;50.16;99677.13;5083889;28;20270;-79
2022/07/16 06:46:25;;;;;;;4.90;3.13;;;;;;;23.14;50.93;99676.34;5065383;28;20316;-79
2022/07/16 06:48:52;;;;;;;6.00;3.40;;;;;;;23.03;50.50;99672.97;5068820;28;20236;-79
2022/07/16 06:51:19;;;;;;;4.38;3.42;;;;;;;23.04;49.46;99674.59;5065235;28;20767;-79
2022/07/16 06:53:46;;;;;;;3.75;2.92;;;;;;;23.12;51.64;99665.69;5073104;28;20299;-79
2022/07/16 06:56:13;;;;;;;4.20;3.20;;;;;;;23.17;52.37;99668.34;5073480;28;20256;-79
2022/07/16 06:58:39;;;;;;;4.68;3.28;;;;;;;23.40;49.48;99663.00;5066006;28;20234;-79
2022/07/16 07:01:06;;;;;;;4.55;3.13;;;;;;;23.84;47.96;99668.69;5077794;28;20327;-79
2022/07/16 07:03:33;;;;;;;5.43;3.30;;;;;;;24.01;46.89;99670.78;5061836;28;20312;-78
2022/07/16 07:06:00;;;;;;;4.90;3.33;;;;;;;24.21;45.37;99659.44;5081812;28;20286;-80
2022/07/16 07:08:26;;;;;;;3.72;3.33;;;;;;;24.11;44.69;99654.16;5076738;28;20372;-80
2022/07/16 07:10:53;;;;;;;3.88;3.00;;;;;;;24.16;45.53;99659.53;5042792;28;20764;-79
2022/07/16 07:13:20;;;;;;;4.45;3.30;;;;;;;24.20;44.46;99655.06;5074941;28;20339;-80
2022/07/16 07:15:47;;;;;;;3.55;2.95;;;;;;;24.22;44.77;99655.56;5074563;28;20239;-80
2022/07/16 07:18:13;;;;;;;3.10;2.67;;;;;;;24.29;43.91;99653.22;5080440;28;20285;-81
2022/07/16 07:20:40;;;;;;;5.43;3.22;;;;;;;24.27;45.08;99649.16;5063831;28;20325;-79
2022/07/16 07:23:07;;;;;;;6.15;3.20;;;;;;;24.32;44.73;99651.78;5061581;28;20282;-79
2022/07/16 07:25:34;;;;;;;3.83;2.75;;;;;;;24.27;43.73;99649.16;5069431;28;20233;-80
2022/07/16 07:28:08;;;;;;;2.67;2.25;;;;;;;24.40;42.29;99646.38;5083575;28;20231;-78
2022/07/16 07:30:35;;;;;;;5.30;2.65;;;;;;;24.54;41.09;99647.13;5074438;28;20220;-78
2022/07/16 07:33:01;;;;;;;2.50;2.30;;;;;;;24.64;39.88;99646.06;5049794;28;20619;-80
2022/07/16 07:35:28;;;;;;;5.18;2.70;;;;;;;24.69;41.51;99651.41;5065128;28;20791;-81
2022/07/16 07:37:55;;;;;;;3.50;2.58;;;;;;;24.89;39.39;99644.66;5069903;28;20228;-78
2022/07/16 07:40:21;;;;;;;3.50;2.72;;;;;;;24.84;39.00;99640.06;5069348;28;20275;-79
2022/07/16 07:42:48;;;;;;;2.35;2.15;;;;;;;24.99;38.59;99636.97;5067178;28;20240;-81
2022/07/16 07:45:15;;;;;;;4.13;2.50;;;;;;;25.18;37.08;99633.19;5060466;28;20228;-78
2022/07/16 07:47:42;;;;;;;3.25;2.20;;;;;;;25.18;36.76;99633.19;5069719;28;20658;-78
2022/07/16 07:50:09;;;;;;;3.28;2.20;;;;;;;25.18;37.21;99638.69;5060686;28;20275;-78
2022/07/16 07:52:35;;;;;;;2.40;2.20;;;;;;;25.26;38.26;99637.91;5069834;28;20766;-78
2022/07/16 07:55:03;;;;;;;3.60;2.47;;;;;;;25.41;38.11;99640.22;5055747;28;20768;-79
2022/07/16 07:57:29;;;;;;;2.50;2.25;;;;;;;25.35;37.57;99639.56;5032815;28;20225;-80
2022/07/16 07:59:56;;;;;;;2.70;2.50;;;;;;;25.39;38.24;99636.97;5066430;28;20291;-78
2022/07/16 08:02:23;;;;;;;3.00;2.20;;;;;;;25.51;37.28;99633.66;5067378;28;20276;-79
2022/07/16 08:04:49;;;;;;;2.70;2.50;;;;;;;25.67;37.66;99627.41;5056375;28;20656;-80
2022/07/16 08:07:16;;;;;;;2.97;2.15;;;;;;;25.62;37.43;99627.56;5066799;28;20227;-79
2022/07/16 08:09:43;;;;;;;2.47;2.28;;;;;;;25.71;36.90;99633.09;5064880;28;20233;-79
2022/07/16 08:12:10;;;;;;;2.85;2.50;;;;;;;25.75;36.69;99618.41;5068250;28;20321;-79
2022/07/16 08:14:36;;;;;;;2.20;2.00;;;;;;;25.85;36.61;99617.28;5073592;28;20285;-79
2022/07/16 08:17:03;;;;;;;2.40;2.20;;;;;;;25.96;37.21;99626.03;5058274;28;20237;-79
2022/07/16 08:19:31;;;;;;;3.15;2.15;;;;;;;25.95;37.92;99616.97;5046971;28;20233;-81
2022/07/16 08:22:00;;;;;;;2.58;2.30;;;;;;;26.08;37.95;99618.75;5069770;28;20239;-78
2022/07/16 08:27:17;;;;;;;2.95;2.42;;;;;;;26.24;36.87;99619.13;5067378;28;20229;-81
2022/07/16 08:29:44;;;;;;;3.78;2.40;;;;;;;26.38;36.09;99625.25;5078443;28;20288;-79
2022/07/16 08:32:11;;;;;;;3.55;2.35;;;;;;;26.46;35.89;99615.38;5073468;28;20225;-79
2022/07/16 08:34:37;;;;;;;3.45;2.55;;;;;;;26.54;36.45;99626.41;5055408;28;20225;-78
2022/07/16 08:37:09;;;;;;;4.55;2.70;;;;;;;26.57;36.34;99627.66;5075271;28;20263;-79
2022/07/16 08:39:42;;;;;;;2.80;2.38;;;;;;;26.61;36.69;99618.44;5073190;28;20570;-78
2022/07/16 08:42:12;;;;;;;2.80;2.20;;;;;;;26.57;37.06;99622.19;5046752;28;20234;-79
2022/07/16 08:44:40;;;;;;;4.47;2.50;;;;;;;26.60;36.63;99630.56;5067169;28;20282;-79
2022/07/16 08:47:10;;;;;;;3.03;2.60;;;;;;;26.48;35.83;99626.88;5066153;28;20241;-79
2022/07/16 08:49:42;;;;;;;5.13;2.38;;;;;;;26.41;36.31;99624.59;5066235;28;20307;-78
2022/07/16 08:52:10;;;;;;;5.75;2.58;;;;;;;26.26;35.59;99620.44;5066369;28;20229;-79
2022/07/16 08:54:37;;;;;;;2.58;2.00;;;;;;;26.32;36.31;99617.53;5072317;28;20225;-79
2022/07/16 08:57:04;;;;;;;3.35;2.40;;;;;;;26.22;36.14;99618.66;5046685;28;20229;-79
2022/07/16 08:59:31;;;;;;;2.60;2.40;;;;;;;26.36;37.01;99611.06;5073518;28;20752;-78
2022/07/16 09:01:57;;;;;;;4.07;2.45;;;;;;;26.28;36.39;99612.66;5074359;28;20246;-79
2022/07/16 09:04:24;;;;;;;2.65;2.30;;;;;;;26.37;37.07;99603.59;5070931;28;20229;-80
2022/07/16 09:06:51;;;;;;;2.65;2.25;;;;;;;26.59;37.03;99608.94;5067604;28;20220;-79
2022/07/16 09:09:18;;;;;;;5.20;2.35;;;;;;;26.65;35.92;99608.41;5068921;28;20229;-79
2022/07/16 09:11:46;;;;;;;2.83;2.60;;;;;;;26.69;35.90;99601.13;5070832;28;20282;-82
2022/07/16 09:14:15;;;;;;;2.72;2.33;;;;;;;26.69;36.49;99603.88;5061151;28;20771;-79
2022/07/16 09:16:48;;;;;;;2.65;2.30;;;;;;;26.87;36.12;99601.13;5070520;28;20248;-79
2022/07/16 09:19:25;;;;;;;2.92;2.60;;;;;;;26.97;35.64;99603.53;5048483;28;20286;-79
2022/07/16 09:22:07;;;;;;;4.53;2.33;;;;;;;27.06;35.42;99596.84;5066583;28;20215;-79
2022/07/16 09:24:40;;;;;;;4.97;2.72;;;;;;;27.25;34.76;99593.69;5075548;28;20228;-78
2022/07/16 09:27:13;;;;;;;4.75;2.50;;;;;;;27.64;34.70;99595.31;5076162;28;20224;-79
2022/07/16 09:29:45;;;;;;;4.03;2.60;;;;;;;27.64;34.46;99586.25;5055743;28;20701;-79
2022/07/16 09:32:26;;;;;;;3.75;2.28;;;;;;;27.91;33.87;99578.28;5068607;28;20228;-78
2022/07/16 09:35:04;;;;;;;2.90;2.50;;;;;;;28.09;34.84;99578.16;5066953;28;20244;-78
2022/07/16 09:37:48;;;;;;;2.65;2.20;;;;;;;28.31;34.06;99572.31;5071502;28;20324;-79
2022/07/16 09:40:28;;;;;;;2.50;2.30;;;;;;;28.59;33.84;99569.75;5070599;28;20233;-79
2022/07/16 09:42:54;;;;;;;4.72;2.53;;;;;;;28.68;33.94;99567.72;5066283;28;20306;-80
2022/07/16 09:45:22;;;;;;;3.47;2.38;;;;;;;28.94;33.48;99554.47;5070449;28;20771;-78
2022/07/16 09:47:49;;;;;;;2.83;2.63;;;;;;;29.45;32.37;99558.53;5066374;28;20637;-80
2022/07/16 09:50:16;;;;;;;6.70;2.63;;;;;;;30.04;31.73;99561.56;5072383;28;20311;-78
2022/07/16 09:52:43;;;;;;;3.15;2.55;;;;;;;30.36;31.14;99558.88;5049197;28;20607;-79
2022/07/16 09:55:09;;;;;;;2.63;2.42;;;;;;;30.22;30.96;99556.53;5070408;28;20253;-79
2022/07/16 09:57:36;;;;;;;3.30;2.70;;;;;;;29.45;32.88;99563.22;5074266;28;20257;-81
2022/07/16 10:00:08;;;;;;;4.50;2.85;;;;;;;29.02;32.95;99547.25;5051830;28;20228;-79
2022/07/16 10:02:38;;;;;;;2.60;2.40;;;;;;;28.96;33.88;99557.69;5052787;28;21398;-80
2022/07/16 10:05:06;;;;;;;3.83;2.40;;;;;;;29.16;32.69;99545.72;5074594;28;20320;-78
2022/07/16 10:07:32;;;;;;;3.50;2.40;;;;;;;29.44;31.96;99540.38;5068739;28;20257;-80
2022/07/16 10:10:00;;;;;;;2.50;2.30;;;;;;;29.40;32.13;99553.22;5056142;28;20700;-80
2022/07/16 10:12:29;;;;;;;2.95;2.60;;;;;;;29.11;31.84;99542.44;5074791;28;20687;-80
2022/07/16 10:14:57;;;;;;;2.88;2.45;;;;;;;29.24;32.54;99544.84;5050757;28;20360;-78
2022/07/16 10:17:37;;;;;;;4.57;2.50;;;;;;;28.96;33.16;99538.38;5070688;28;20311;-79
2022/07/16 10:20:11;;;;;;;2.50;2.30;;;;;;;28.99;32.51;99532.19;5059048;28;20244;-78
2022/07/16 10:22:44;;;;;;;3.30;2.65;;;;;;;29.10;32.32;99535.28;5074571;28;20252;-79
2022/07/16 10:25:22;;;;;;;2.63;2.30;;;;;;;28.65;32.34;99535.34;5078614;28;20247;-79
2022/07/16 10:27:51;;;;;;;2.50;2.30;;;;;;;28.48;32.78;99524.47;5084990;28;20240;-80
2022/07/16 10:30:23;;;;;;;2.40;2.20;;;;;;;28.48;33.82;99533.56;5077066;28;20232;-79
2022/07/16 10:32:59;;;;;;;3.50;2.60;;;;;;;28.71;33.90;99531.22;5082085;28;20229;-79
2022/07/16 10:35:47;;;;;;;3.55;2.30;;;;;;;28.78;33.18;99532.28;5070761;28;20267;-79
2022/07/16 10:38:20;;;;;;;3.85;2.50;;;;;;;28.42;33.35;99532.97;5075635;28;20271;-79
2022/07/16 10:41:15;;;;;;;3.13;2.30;;;;;;;28.20;33.24;99516.03;5071997;28;20476;-78
2022/07/16 10:44:09;;;;;;;2.83;2.33;;;;;;;28.00;33.87;99521.19;5059434;28;20244;-79
2022/07/16 10:46:51;;;;;;;4.82;2.40;;;;;;;27.88;34.10;99518.38;5064019;28;20738;-79
2022/07/16 10:49:18;;;;;;;3.40;2.20;;;;;;;27.67;34.41;99525.03;5070966;28;20647;-80
2022/07/16 10:52:05;;;;;;;3.08;2.50;;;;;;;27.43;34.04;99511.91;5060117;28;20269;-80
2022/07/16 10:54:35;;;;;;;2.58;2.10;;;;;;;27.19;34.20;99529.03;5072618;28;20238;-81
2022/07/16 10:57:16;;;;;;;3.53;2.28;;;;;;;26.85;34.39;99521.72;5051729;28;20292;-79
2022/07/16 10:59:48;;;;;;;3.33;2.40;;;;;;;27.20;35.28;99516.09;5054501;28;20228;-79
2022/07/16 11:02:17;;;;;;;3.05;2.33;;;;;;;27.11;34.94;99530.66;5041696;28;20715;-78
2022/07/16 11:04:48;;;;;;;2.60;2.40;;;;;;;27.06;34.79;99528.09;5060906;28;20279;-81
2022/07/16 11:07:18;;;;;;;3.65;2.45;;;;;;;27.08;35.15;99528.59;5075577;28;20716;-81
2022/07/16 11:09:46;;;;;;;2.58;2.38;;;;;;;27.41;33.32;99516.91;5058014;28;20228;-78
2022/07/16 11:12:18;;;;;;;5.63;2.67;;;;;;;27.81;34.50;99522.84;5033911;28;20595;-79
2022/07/16 11:14:47;;;;;;;5.35;2.63;;;;;;;27.97;33.45;99521.88;5072476;28;20849;-79
2022/07/16 11:17:15;;;;;;;4.50;2.50;;;;;;;27.85;32.97;99524.56;5081452;28;20235;-81
2022/07/16 11:19:49;;;;;;;2.50;2.30;;;;;;;28.17;33.19;99523.03;5065274;28;20286;-79
2022/07/16 11:22:17;;;;;;;2.58;2.28;;;;;;;28.22;32.92;99525.56;5068790;28;20353;-79
2022/07/16 11:24:49;;;;;;;2.45;2.20;;;;;;;28.17;33.03;99522.22;5059805;28;20256;-79
2022/07/16 11:27:16;;;;;;;4.30;2.45;;;;;;;28.55;32.94;99524.75;5052586;28;20236;-78
2022/07/16 11:29:43;;;;;;;2.75;2.28;;;;;;;28.60;33.11;99519.81;5072920;28;20333;-80
2022/07/16 11:32:16;;;;;;;3.80;2.50;;;;;;;28.23;32.72;99518.13;5065659;28;20252;-79
2022/07/16 11:34:43;;;;;;;4.47;2.50;;;;;;;28.18;32.60;99521.06;5071360;28;20244;-79
2022/07/16 11:37:10;;;;;;;3.97;2.15;;;;;;;27.99;32.99;99511.34;5073613;28;20595;-79
2022/07/16 11:39:38;;;;;;;4.32;2.60;;;;;;;27.81;32.54;99520.84;5051978;28;20229;-81